Time;durP1;ratioP1;P1;durP2;ratioP2;P2;SDS_P1;SDS_P2;PMS_P1;PMS_P2;Temp;Humidity;BMP_temperature;BMP_pressure;BME280_temperature;BME280_humidity;BME280_pressure;Samples;Min_cycle;Max_cycle;Signal;HPM_P1;HPM_P2
2023/01/28 00:01:31;;;;;;;7.15;4.72;;;;;;;-0.25;83.78;100003.06;7348825;19;20441;-74
2023/01/28 00:03:55;;;;;;;8.98;4.85;;;;;;;-0.31;83.76;99999.72;7345813;19;20461;-75
2023/01/28 00:06:20;;;;;;;7.20;4.90;;;;;;;-0.33;83.91;100001.50;7345565;19;20047;-75
2023/01/28 00:08:45;;;;;;;7.10;4.80;;;;;;;-0.35;83.96;100003.31;7345518;19;20011;-78
2023/01/28 00:11:12;;;;;;;6.32;4.38;;;;;;;-0.37;83.95;100001.56;7348789;19;20013;-76
2023/01/28 00:13:36;;;;;;;5.80;4.07;;;;;;;-0.35;83.96;99998.06;7346785;19;20028;-74
2023/01/28 00:16:04;;;;;;;8.32;4.82;;;;;;;-0.39;83.83;99997.25;7346262;19;20002;-74
2023/01/28 00:18:29;;;;;;;6.88;4.95;;;;;;;-0.39;83.89;99992.88;7344727;19;20041;-75
2023/01/28 00:21:03;;;;;;;6.53;3.92;;;;;;;-0.35;83.80;99995.44;7346083;19;20377;-76
2023/01/28 00:23:29;;;;;;;6.95;4.38;;;;;;;-0.39;83.83;99999.88;7346306;19;20022;-75
2023/01/28 00:25:57;;;;;;;6.35;4.20;;;;;;;-0.40;83.69;99996.41;7348381;19;20070;-79
2023/01/28 00:28:22;;;;;;;6.60;4.45;;;;;;;-0.43;83.57;100004.31;7343315;19;20022;-75
2023/01/28 00:30:46;;;;;;;6.70;3.95;;;;;;;-0.42;83.55;99998.19;7347301;19;20010;-77
2023/01/28 00:33:12;;;;;;;6.57;4.47;;;;;;;-0.43;83.66;100006.06;7343542;19;20513;-76
2023/01/28 00:35:37;;;;;;;8.90;4.57;;;;;;;-0.43;83.60;100000.81;7343106;19;20014;-74
2023/01/28 00:38:03;;;;;;;5.35;4.22;;;;;;;-0.44;83.70;99999.97;7342992;19;20065;-74
2023/01/28 00:40:27;;;;;;;6.20;4.25;;;;;;;-0.40;83.49;100001.63;7343866;19;20011;-67
2023/01/28 00:42:53;;;;;;;7.63;3.92;;;;;;;-0.42;83.44;99998.19;7340635;19;20014;-75
2023/01/28 00:45:19;;;;;;;6.40;3.85;;;;;;;-0.41;83.40;100007.78;7344337;19;20021;-71
2023/01/28 00:47:44;;;;;;;5.60;3.78;;;;;;;-0.43;83.37;100011.31;7341992;19;20365;-70
2023/01/28 00:50:09;;;;;;;5.35;3.70;;;;;;;-0.46;83.20;100014.88;7341562;19;20014;-70
2023/01/28 00:52:35;;;;;;;4.25;3.17;;;;;;;-0.47;83.25;100015.78;7341779;19;20015;-72
2023/01/28 00:55:00;;;;;;;6.55;4.45;;;;;;;-0.50;83.28;100015.81;7344666;19;20041;-73
2023/01/28 00:57:24;;;;;;;7.57;4.15;;;;;;;-0.49;83.09;100017.56;7342515;19;20015;-72
2023/01/28 00:59:49;;;;;;;5.47;4.30;;;;;;;-0.55;83.15;100004.56;7341168;19;20056;-73
2023/01/28 01:02:14;;;;;;;6.35;4.07;;;;;;;-0.53;83.15;100007.16;7342050;19;20018;-72
2023/01/28 01:04:39;;;;;;;5.95;4.40;;;;;;;-0.50;83.52;100020.19;7352318;19;20445;-71
2023/01/28 01:07:04;;;;;;;5.88;4.03;;;;;;;-0.52;83.40;100007.13;7347970;19;20018;-71
2023/01/28 01:09:29;;;;;;;6.35;4.40;;;;;;;-0.52;83.24;100014.13;7349776;19;20020;-72
2023/01/28 01:11:54;;;;;;;6.30;4.47;;;;;;;-0.52;83.45;100020.22;7348270;19;20015;-74
2023/01/28 01:14:19;;;;;;;6.18;4.90;;;;;;;-0.51;83.20;100021.09;7349412;19;20002;-71
2023/01/28 01:16:45;;;;;;;5.60;4.47;;;;;;;-0.51;83.22;100018.47;7348361;19;20025;-74
2023/01/28 01:19:10;;;;;;;8.93;5.07;;;;;;;-0.51;83.21;100024.56;7349284;19;20463;-77
2023/01/28 01:21:34;;;;;;;13.27;6.43;;;;;;;-0.50;83.16;100021.06;7349243;19;20424;-74
2023/01/28 01:23:59;;;;;;;6.85;4.50;;;;;;;-0.49;82.98;100028.03;7348789;19;19995;-78
2023/01/28 01:26:26;;;;;;;8.00;4.70;;;;;;;-0.49;83.01;100016.69;7348713;19;20014;-76
2023/01/28 01:28:51;;;;;;;7.35;4.97;;;;;;;-0.49;82.84;100022.78;7349285;19;20053;-75
2023/01/28 01:31:18;;;;;;;8.30;4.93;;;;;;;-0.48;82.79;100021.91;7349500;19;20011;-75
2023/01/28 01:33:44;;;;;;;5.95;4.85;;;;;;;-0.48;82.66;100015.78;7350086;19;20026;-73
2023/01/28 01:36:10;;;;;;;10.50;5.43;;;;;;;-0.51;82.58;100011.47;7351515;19;20018;-74
2023/01/28 01:38:35;;;;;;;9.00;5.65;;;;;;;-0.51;82.43;100014.09;7351178;19;20049;-77
2023/01/28 01:41:01;;;;;;;7.65;4.68;;;;;;;-0.53;82.44;100021.13;7351783;19;20025;-69
2023/01/28 01:43:50;;;;;;;7.82;4.80;;;;;;;-0.45;82.51;100006.09;7346351;19;20018;-74
2023/01/28 01:46:44;;;;;;;10.93;5.88;;;;;;;-0.51;82.35;100008.00;7348099;19;20041;-77
2023/01/28 01:49:20;;;;;;;8.32;5.28;;;;;;;-0.48;82.18;100005.31;7350201;19;20334;-75
2023/01/28 01:51:50;;;;;;;10.27;5.82;;;;;;;-0.55;82.20;99996.72;7353333;19;20066;-77
2023/01/28 01:54:17;;;;;;;10.02;5.38;;;;;;;-0.53;82.17;100000.16;7351542;19;20014;-77
2023/01/28 01:56:46;;;;;;;7.55;5.28;;;;;;;-0.53;82.04;100002.78;7348999;19;20007;-69
2023/01/28 01:59:14;;;;;;;8.50;5.68;;;;;;;-0.52;82.04;100006.28;7347551;19;20029;-69
2023/01/28 02:01:39;;;;;;;6.40;5.03;;;;;;;-0.59;81.86;100007.31;7346273;19;20039;-70
2023/01/28 02:04:11;;;;;;;7.13;4.82;;;;;;;-0.58;82.05;100007.28;7347374;19;20029;-69
2023/01/28 02:06:36;;;;;;;7.78;5.32;;;;;;;-0.62;81.84;100020.44;7345300;19;20354;-71
2023/01/28 02:09:02;;;;;;;7.22;5.13;;;;;;;-0.63;81.82;100016.09;7349048;19;20155;-72
2023/01/28 02:11:31;;;;;;;6.60;4.20;;;;;;;-0.62;81.77;100021.31;7349300;19;20007;-72
2023/01/28 02:13:59;;;;;;;5.78;4.65;;;;;;;-0.63;81.70;100021.34;7347340;19;20026;-72
2023/01/28 02:16:26;;;;;;;7.32;5.38;;;;;;;-0.67;81.48;100030.13;7347556;19;20021;-70
2023/01/28 02:18:50;;;;;;;7.28;4.70;;;;;;;-0.66;81.47;100017.00;7347909;19;20034;-69
2023/01/28 02:21:40;;;;;;;6.88;4.63;;;;;;;-0.63;81.50;100027.44;7347129;19;20129;-69
2023/01/28 02:24:23;;;;;;;7.13;4.50;;;;;;;-0.65;81.51;100023.13;7349507;19;20023;-69
2023/01/28 02:27:12;;;;;;;7.05;5.00;;;;;;;-0.70;81.35;100023.22;7347952;19;20359;-69
2023/01/28 02:30:06;;;;;;;6.85;4.88;;;;;;;-0.68;81.42;100021.44;7346306;19;20023;-70
2023/01/28 02:32:34;;;;;;;6.18;4.50;;;;;;;-0.80;81.18;100022.53;7342178;19;20003;-74
2023/01/28 02:35:34;;;;;;;9.52;4.68;;;;;;;-0.77;81.25;100022.47;7343808;19;20010;-72
2023/01/28 02:38:17;;;;;;;6.47;4.40;;;;;;;-0.81;81.10;100020.81;7345224;19;20015;-74
2023/01/28 02:41:03;;;;;;;8.57;5.75;;;;;;;-0.84;81.23;100022.63;7346395;19;20010;-71
2023/01/28 02:43:38;;;;;;;8.30;5.25;;;;;;;-0.81;81.05;100028.66;7342402;19;20039;-71
2023/01/28 02:48:58;;;;;;;;;;;;;;;-0.71;81.20;100031.97;7344222;19;20267;-72
2023/01/28 02:51:23;;;;;;;;;;;;;;;-0.69;81.14;100031.94;7345687;19;19929;-73
2023/01/28 02:54:02;;;;;;;7.80;4.95;;;;;;;-0.80;80.91;100034.78;7343768;19;19991;-71
2023/01/28 02:56:30;;;;;;;8.65;5.28;;;;;;;-0.86;81.06;100040.97;7345725;19;20046;-72
2023/01/28 02:59:30;;;;;;;8.25;5.53;;;;;;;-0.91;81.00;100041.97;7344144;19;20022;-72
2023/01/28 03:02:19;;;;;;;8.57;5.50;;;;;;;-0.89;81.13;100048.00;7342662;19;20015;-72
2023/01/28 03:04:57;;;;;;;8.85;6.10;;;;;;;-0.98;81.06;100043.81;7341265;19;20014;-72
2023/01/28 03:07:24;;;;;;;10.27;6.13;;;;;;;-1.01;81.08;100048.22;7341620;19;20011;-71
2023/01/28 03:09:51;;;;;;;9.57;6.07;;;;;;;-1.00;81.01;100045.59;7342794;19;20087;-71
2023/01/28 03:38:40;;;;;;;11.80;6.68;;;;;;;-1.11;81.00;100051.03;7345169;19;20010;-71
2023/01/28 03:41:09;;;;;;;8.63;5.57;;;;;;;-1.09;81.02;100056.22;7345520;19;20461;-71
2023/01/28 03:43:34;;;;;;;8.35;5.80;;;;;;;-1.11;81.03;100050.16;7342116;19;20090;-71
2023/01/28 03:45:59;;;;;;;9.02;6.00;;;;;;;-1.10;80.88;100065.81;7345632;19;20014;-71
2023/01/28 03:48:26;;;;;;;10.25;6.50;;;;;;;-1.08;80.78;100060.56;7344313;19;20035;-69
2023/01/28 03:50:52;;;;;;;12.55;6.85;;;;;;;-1.07;80.94;100061.44;7344438;19;20018;-70
2023/01/28 03:53:17;;;;;;;11.52;5.75;;;;;;;-1.04;80.75;100061.38;7344081;19;20033;-70
2023/01/28 03:55:49;;;;;;;10.63;5.50;;;;;;;-1.03;80.70;100058.75;7344663;19;20056;-70
2023/01/28 03:58:15;;;;;;;9.52;5.53;;;;;;;-1.01;80.64;100048.22;7342508;19;20022;-69
2023/01/28 04:00:41;;;;;;;8.98;5.57;;;;;;;-1.04;80.53;100058.78;7343847;19;20006;-72
2023/01/28 04:03:14;;;;;;;8.25;5.03;;;;;;;-1.03;80.48;100055.28;7344882;19;20041;-73
2023/01/28 04:05:41;;;;;;;9.52;5.45;;;;;;;-1.04;80.47;100050.94;7343042;19;20006;-73
2023/01/28 04:08:06;;;;;;;6.50;5.20;;;;;;;-1.10;80.43;100052.75;7344934;19;20010;-71
2023/01/28 04:10:51;;;;;;;8.05;5.22;;;;;;;-1.09;80.33;100061.47;7343598;19;20002;-71
2023/01/28 04:13:24;;;;;;;6.75;4.00;;;;;;;-1.12;80.38;100054.53;7342138;19;20026;-70
2023/01/28 04:15:49;;;;;;;7.78;4.82;;;;;;;-1.14;80.39;100055.47;7343215;19;20014;-71
2023/01/28 04:18:14;;;;;;;8.07;4.82;;;;;;;-1.18;80.46;100052.03;7344481;19;20015;-70
2023/01/28 04:20:40;;;;;;;7.30;4.80;;;;;;;-1.15;80.33;100051.97;7342334;19;20002;-71
2023/01/28 04:23:06;;;;;;;8.10;4.75;;;;;;;-1.15;80.17;100054.59;7344363;19;20099;-70
2023/01/28 04:25:32;;;;;;;8.65;4.70;;;;;;;-1.13;80.33;100057.19;7343482;19;20040;-70
2023/01/28 04:27:57;;;;;;;7.75;4.82;;;;;;;-1.15;80.31;100051.13;7344869;19;20045;-70
2023/01/28 04:30:24;;;;;;;7.90;4.70;;;;;;;-1.14;80.13;100052.84;7342587;19;20007;-72
2023/01/28 04:33:09;;;;;;;9.30;5.13;;;;;;;-1.14;80.08;100050.22;7345000;19;20011;-71
2023/01/28 04:35:40;;;;;;;7.57;4.65;;;;;;;-1.15;80.08;100051.13;7341902;19;20018;-70
2023/01/28 04:38:20;;;;;;;7.45;4.35;;;;;;;-1.18;80.12;100056.41;7342853;19;20089;-72
2023/01/28 04:40:56;;;;;;;9.32;5.13;;;;;;;-1.18;80.28;100048.53;7342242;19;20353;-71
2023/01/28 04:43:26;;;;;;;7.75;4.78;;;;;;;-1.18;80.24;100048.53;7339945;19;20014;-71
2023/01/28 04:46:15;;;;;;;6.85;4.43;;;;;;;-1.18;80.12;100054.66;7341909;19;20014;-71
2023/01/28 04:48:50;;;;;;;8.63;5.30;;;;;;;-1.16;80.24;100060.72;7343333;19;20047;-71
2023/01/28 04:51:33;;;;;;;8.60;4.75;;;;;;;-1.13;80.25;100060.63;7343376;19;20018;-72
2023/01/28 04:54:24;;;;;;;5.60;4.00;;;;;;;-1.14;80.21;100051.09;7339972;19;20477;-72
2023/01/28 04:56:50;;;;;;;6.35;3.88;;;;;;;-1.13;80.16;100049.34;7341374;19;20014;-72
2023/01/28 04:59:14;;;;;;;8.68;5.00;;;;;;;-1.12;79.91;100054.53;7340198;19;20026;-70
2023/01/28 05:01:39;;;;;;;11.50;5.20;;;;;;;-1.12;80.24;100059.75;7341960;19;20014;-69
2023/01/28 05:04:04;;;;;;;8.57;4.80;;;;;;;-1.09;79.87;100061.47;7342245;19;20019;-71
2023/01/28 05:06:31;;;;;;;7.97;4.28;;;;;;;-1.09;79.92;100069.31;7340560;19;20342;-70
2023/01/28 05:09:00;;;;;;;6.40;3.72;;;;;;;-1.10;79.87;100065.81;7342133;19;20022;-69
2023/01/28 05:11:25;;;;;;;8.93;5.05;;;;;;;-1.11;79.82;100071.09;7339797;19;20033;-70
2023/01/28 05:13:55;;;;;;;8.02;4.30;;;;;;;-1.11;79.88;100069.34;7340634;19;20037;-71
2023/01/28 05:16:20;;;;;;;7.57;4.20;;;;;;;-1.14;79.75;100069.41;7341755;19;19999;-71
2023/01/28 05:18:46;;;;;;;7.78;4.30;;;;;;;-1.14;79.65;100073.78;7341518;19;20018;-70
2023/01/28 05:21:17;;;;;;;5.88;4.13;;;;;;;-1.16;79.75;100073.78;7341565;19;20019;-71
2023/01/28 05:23:48;;;;;;;6.82;4.68;;;;;;;-1.15;79.74;100078.16;7339899;19;20465;-72
2023/01/28 05:26:13;;;;;;;7.57;4.15;;;;;;;-1.16;79.76;100086.88;7340915;19;20417;-70
2023/01/28 05:28:38;;;;;;;9.57;5.20;;;;;;;-1.15;79.62;100086.00;7337081;19;20355;-72
2023/01/28 05:31:04;;;;;;;8.57;4.05;;;;;;;-1.14;79.54;100079.00;7342651;19;20023;-71
2023/01/28 05:33:29;;;;;;;9.52;5.10;;;;;;;-1.13;79.65;100084.19;7343447;19;20014;-71
2023/01/28 05:35:53;;;;;;;7.80;4.15;;;;;;;-1.13;79.51;100091.19;7339955;19;20044;-70
2023/01/28 05:38:20;;;;;;;7.65;5.05;;;;;;;-1.18;79.38;100080.81;7341405;19;20018;-69
2023/01/28 05:40:46;;;;;;;7.57;4.93;;;;;;;-1.20;79.24;100082.56;7338758;19;20096;-72
2023/01/28 05:43:10;;;;;;;7.45;4.80;;;;;;;-1.23;79.27;100082.63;7337917;19;20026;-71
2023/01/28 05:45:39;;;;;;;9.27;5.20;;;;;;;-1.21;79.34;100088.69;7338863;19;20014;-71
2023/01/28 05:48:08;;;;;;;6.72;4.28;;;;;;;-1.24;79.24;100086.13;7338929;19;20098;-71
2023/01/28 05:51:04;;;;;;;7.80;5.00;;;;;;;-1.23;79.24;100085.22;7346955;19;20333;-70
2023/01/28 05:53:33;;;;;;;8.43;5.20;;;;;;;-1.24;79.39;100088.72;7350565;19;20022;-69
2023/01/28 05:55:58;;;;;;;8.95;5.40;;;;;;;-1.28;79.27;100087.09;7346031;19;20013;-70
2023/01/28 05:58:23;;;;;;;9.68;4.85;;;;;;;-1.31;79.12;100094.97;7348152;19;20010;-71
2023/01/28 06:00:48;;;;;;;8.43;4.43;;;;;;;-1.31;79.15;100087.13;7348848;19;20018;-74
2023/01/28 06:03:17;;;;;;;5.72;4.07;;;;;;;-1.33;79.14;100094.13;7346986;19;20021;-73
2023/01/28 06:05:42;;;;;;;6.72;4.53;;;;;;;-1.35;79.04;100082.81;7348288;19;20076;-72
2023/01/28 06:08:06;;;;;;;6.78;4.90;;;;;;;-1.34;79.14;100092.41;7344509;19;20101;-73
2023/01/28 06:10:31;;;;;;;8.68;4.97;;;;;;;-1.36;79.18;100090.72;7347872;19;20010;-73
2023/01/28 06:12:56;;;;;;;10.98;4.85;;;;;;;-1.37;79.09;100100.31;7347772;19;20014;-74
2023/01/28 06:15:30;;;;;;;9.40;4.93;;;;;;;-1.37;79.22;100102.94;7347086;19;20074;-72
2023/01/28 06:17:58;;;;;;;10.38;5.50;;;;;;;-1.39;79.13;100109.94;7347484;19;20018;-74
2023/01/28 06:20:29;;;;;;;12.63;5.50;;;;;;;-1.40;79.17;100097.75;7345701;19;20006;-72
2023/01/28 06:22:56;;;;;;;9.88;5.63;;;;;;;-1.42;78.82;100098.63;7346909;19;20019;-74
2023/01/28 06:25:21;;;;;;;10.70;5.45;;;;;;;-1.42;78.86;100103.88;7345382;19;20319;-70
2023/01/28 06:27:45;;;;;;;10.05;5.85;;;;;;;-1.41;78.90;100111.69;7344760;19;20373;-70
2023/01/28 06:30:11;;;;;;;14.25;6.70;;;;;;;-1.42;78.83;100107.34;7349364;19;20003;-71
2023/01/28 06:32:36;;;;;;;11.30;5.38;;;;;;;-1.44;78.78;100106.50;7348042;19;20014;-77
2023/01/28 06:35:00;;;;;;;13.23;5.13;;;;;;;-1.43;78.85;100110.84;7349145;19;20118;-77
2023/01/28 06:37:25;;;;;;;13.77;6.00;;;;;;;-1.48;78.65;100105.72;7349462;19;20385;-78
2023/01/28 06:39:54;;;;;;;9.23;5.57;;;;;;;-1.44;78.79;100103.88;7350759;19;20018;-77
2023/01/28 06:42:18;;;;;;;9.00;5.35;;;;;;;-1.49;78.75;100098.75;7348534;19;20041;-78
2023/01/28 06:44:43;;;;;;;10.88;5.53;;;;;;;-1.46;78.66;100105.66;7347267;19;20006;-77
2023/01/28 06:47:09;;;;;;;7.22;4.68;;;;;;;-1.47;78.49;100110.03;7350990;19;20473;-78
2023/01/28 06:49:34;;;;;;;5.80;4.25;;;;;;;-1.48;78.57;100110.06;7349019;19;20025;-79
2023/01/28 06:51:58;;;;;;;6.80;4.65;;;;;;;-1.48;78.55;100115.31;7349987;19;20006;-79
2023/01/28 06:54:23;;;;;;;6.95;4.40;;;;;;;-1.50;78.43;100112.72;7346472;19;20361;-72
2023/01/28 06:56:48;;;;;;;7.80;4.72;;;;;;;-1.51;78.51;100105.75;7344862;19;20010;-72
2023/01/28 06:59:12;;;;;;;8.27;4.78;;;;;;;-1.47;78.27;100117.03;7343902;19;20485;-72
2023/01/28 07:01:37;;;;;;;8.77;4.63;;;;;;;-1.48;78.41;100110.06;7342271;19;20021;-71
2023/01/28 07:04:01;;;;;;;8.27;5.18;;;;;;;-1.48;78.41;100120.53;7345996;19;20457;-72
2023/01/28 07:06:26;;;;;;;7.05;4.47;;;;;;;-1.51;78.34;100115.34;7344207;19;20003;-72
2023/01/28 07:08:50;;;;;;;9.00;4.90;;;;;;;-1.54;78.31;100120.59;7345433;19;20449;-70
2023/01/28 07:11:15;;;;;;;8.60;4.88;;;;;;;-1.52;78.48;100124.06;7343076;19;20798;-72
2023/01/28 07:13:40;;;;;;;8.23;4.65;;;;;;;-1.53;78.58;100117.97;7343746;19;20011;-71
2023/01/28 07:16:06;;;;;;;7.47;5.28;;;;;;;-1.55;78.31;100124.09;7345093;19;20033;-69
2023/01/28 07:18:30;;;;;;;7.15;4.18;;;;;;;-1.56;78.54;100125.00;7343264;19;20021;-71
2023/01/28 07:20:55;;;;;;;9.45;5.43;;;;;;;-1.52;78.36;100118.84;7344628;19;20014;-72
2023/01/28 07:23:20;;;;;;;7.47;4.60;;;;;;;-1.49;78.22;100124.03;7345956;19;20025;-72
2023/01/28 07:25:44;;;;;;;7.80;4.60;;;;;;;-1.45;78.26;100123.06;7343901;19;19999;-72
2023/01/28 07:28:10;;;;;;;8.98;5.00;;;;;;;-1.46;78.19;100123.97;7343763;19;20081;-72
2023/01/28 07:30:35;;;;;;;11.27;5.13;;;;;;;-1.45;78.28;100128.31;7344867;19;20010;-72
2023/01/28 07:33:00;;;;;;;11.88;5.93;;;;;;;-1.44;78.42;100130.03;7345803;19;20034;-73
2023/01/28 07:35:25;;;;;;;10.38;4.88;;;;;;;-1.42;78.35;100128.28;7342266;19;20007;-72
2023/01/28 07:37:54;;;;;;;8.63;5.20;;;;;;;-1.39;78.20;100127.38;7345666;19;20017;-71
2023/01/28 07:40:19;;;;;;;10.02;5.88;;;;;;;-1.39;78.25;100123.00;7345194;19;20341;-71
2023/01/28 07:42:44;;;;;;;21.27;7.35;;;;;;;-1.38;78.25;100126.47;7341829;19;20035;-70
2023/01/28 07:45:10;;;;;;;9.80;5.68;;;;;;;-1.36;78.21;100120.34;7342652;19;20492;-73
2023/01/28 07:47:35;;;;;;;11.25;6.55;;;;;;;-1.34;78.10;100109.84;7342141;19;20015;-72
2023/01/28 07:50:00;;;;;;;10.25;6.43;;;;;;;-1.31;77.98;100113.28;7344929;19;20018;-71
2023/01/28 07:52:24;;;;;;;11.40;6.45;;;;;;;-1.29;77.95;100106.28;7341612;19;20531;-71
2023/01/28 07:54:49;;;;;;;11.48;6.40;;;;;;;-1.27;78.03;100108.88;7342876;19;20028;-71
2023/01/28 07:57:13;;;;;;;14.93;6.80;;;;;;;-1.28;77.90;100108.00;7345111;19;20010;-71
2023/01/28 07:59:38;;;;;;;13.98;7.18;;;;;;;-1.24;77.90;100116.69;7343403;19;20011;-72
2023/01/28 08:02:03;;;;;;;15.18;7.32;;;;;;;-1.25;77.79;100123.66;7343627;19;20041;-72
2023/01/28 08:04:27;;;;;;;13.73;6.78;;;;;;;-1.24;77.78;100125.34;7341538;19;20089;-71
2023/01/28 08:06:52;;;;;;;12.65;7.90;;;;;;;-1.20;77.76;100116.56;7343164;19;20010;-71
2023/01/28 08:09:17;;;;;;;12.60;6.57;;;;;;;-1.19;77.85;100113.09;7344597;19;20360;-69
2023/01/28 08:11:41;;;;;;;14.85;7.35;;;;;;;-1.22;77.63;100110.50;7342992;19;20010;-72
2023/01/28 08:14:06;;;;;;;12.65;7.22;;;;;;;-1.25;77.54;100120.19;7343713;19;20002;-72
2023/01/28 08:16:31;;;;;;;13.38;7.78;;;;;;;-1.29;77.50;100115.88;7345827;19;20143;-72
2023/01/28 08:18:56;;;;;;;16.08;8.27;;;;;;;-1.30;77.48;100109.78;7343634;19;20612;-70
2023/01/28 08:21:21;;;;;;;12.20;7.47;;;;;;;-1.33;77.42;100115.03;7344583;19;20006;-72
2023/01/28 08:23:45;;;;;;;13.70;8.30;;;;;;;-1.34;77.57;100112.44;7341060;19;20006;-72
2023/01/28 08:26:10;;;;;;;16.67;8.27;;;;;;;-1.37;77.58;100113.38;7343186;19;20006;-72
2023/01/28 08:28:34;;;;;;;17.13;7.95;;;;;;;-1.37;77.57;100107.28;7345959;19;20019;-73
2023/01/28 08:31:00;;;;;;;14.52;8.15;;;;;;;-1.40;77.69;100117.78;7352896;19;20034;-72
2023/01/28 08:33:24;;;;;;;18.50;8.57;;;;;;;-1.45;77.65;100115.22;7357533;19;20047;-73
2023/01/28 08:35:49;;;;;;;16.23;8.90;;;;;;;-1.44;77.60;100116.97;7352894;19;20139;-73
2023/01/28 08:38:15;;;;;;;18.85;9.80;;;;;;;-1.44;77.59;100118.72;7354547;19;20044;-71
2023/01/28 08:40:40;;;;;;;19.88;10.27;;;;;;;-1.44;77.53;100121.31;7342753;19;20021;-72
2023/01/28 08:43:04;;;;;;;19.77;11.13;;;;;;;-1.48;77.64;100128.38;7340205;19;20010;-73
2023/01/28 08:45:30;;;;;;;17.58;10.48;;;;;;;-1.47;77.52;100112.63;7345936;19;20013;-72
2023/01/28 08:48:06;;;;;;;18.30;11.55;;;;;;;-1.50;77.38;100112.72;7354425;19;20014;-73
2023/01/28 08:50:34;;;;;;;19.42;11.18;;;;;;;-1.46;77.25;100113.50;7349197;19;20017;-72
2023/01/28 08:53:01;;;;;;;19.52;11.48;;;;;;;-1.44;77.27;100105.63;7342045;19;20022;-72
2023/01/28 08:55:28;;;;;;;23.23;11.20;;;;;;;-1.45;77.29;100104.78;7343571;19;20461;-71
2023/01/28 08:57:54;;;;;;;26.88;11.63;;;;;;;-1.41;77.25;100108.22;7346728;19;20007;-73
2023/01/28 09:00:19;;;;;;;24.40;12.80;;;;;;;-1.38;77.03;100105.56;7343793;19;20014;-71
2023/01/28 09:02:44;;;;;;;24.05;11.95;;;;;;;-1.35;77.00;100108.09;7343327;19;20682;-72
2023/01/28 09:05:09;;;;;;;21.98;11.05;;;;;;;-1.32;76.78;100105.44;7342450;19;20402;-70
2023/01/28 09:07:34;;;;;;;23.05;11.85;;;;;;;-1.31;76.65;100097.59;7345232;19;20018;-71
2023/01/28 09:09:59;;;;;;;23.80;11.07;;;;;;;-1.24;76.47;100100.97;7342096;19;20006;-71
2023/01/28 09:12:23;;;;;;;22.85;12.80;;;;;;;-1.22;76.31;100100.03;7342510;19;20010;-73
2023/01/28 09:14:48;;;;;;;24.30;11.75;;;;;;;-1.19;76.18;100093.91;7342498;19;20025;-71
2023/01/28 09:17:13;;;;;;;21.45;10.90;;;;;;;-1.15;76.12;100101.69;7342028;19;20026;-72
2023/01/28 09:19:37;;;;;;;26.00;12.63;;;;;;;-1.17;75.87;100090.38;7341692;19;20010;-72
2023/01/28 09:22:03;;;;;;;22.23;11.48;;;;;;;-1.17;75.79;100111.31;7341255;19;20382;-72
2023/01/28 09:24:28;;;;;;;18.77;10.68;;;;;;;-1.15;75.79;100098.22;7347791;19;20014;-73
2023/01/28 09:26:53;;;;;;;19.65;11.07;;;;;;;-1.13;75.82;100102.50;7346552;19;20019;-73
2023/01/28 09:29:17;;;;;;;21.25;12.82;;;;;;;-1.13;75.68;100086.81;7348490;19;20485;-72
2023/01/28 09:31:42;;;;;;;26.13;13.45;;;;;;;-1.09;75.48;100092.84;7350106;19;20006;-72
2023/01/28 09:34:08;;;;;;;31.80;12.23;;;;;;;-1.07;75.45;100079.75;7347870;19;20014;-72
2023/01/28 09:36:32;;;;;;;26.20;12.77;;;;;;;-1.03;75.48;100097.13;7348402;19;20014;-72
2023/01/28 09:38:57;;;;;;;24.77;12.00;;;;;;;-1.03;75.48;100087.53;7346831;19;20006;-73
2023/01/28 09:41:31;;;;;;;24.27;12.55;;;;;;;-0.97;75.53;100089.16;7347877;19;20019;-72
2023/01/28 09:43:56;;;;;;;23.92;12.02;;;;;;;-0.91;75.44;100089.06;7344262;19;20024;-73
2023/01/28 09:46:21;;;;;;;29.10;12.15;;;;;;;-0.91;75.30;100091.69;7345498;19;20014;-73
2023/01/28 09:48:49;;;;;;;24.15;12.40;;;;;;;-0.87;75.26;100090.72;7344135;19;20015;-73
2023/01/28 09:51:41;;;;;;;20.15;10.95;;;;;;;-0.79;75.26;100081.84;7344356;19;20019;-71
2023/01/28 09:54:36;;;;;;;22.85;10.77;;;;;;;-0.79;75.13;100086.22;7343435;19;20037;-72
2023/01/28 09:57:06;;;;;;;20.23;10.88;;;;;;;-0.85;74.80;100081.09;7345019;19;20010;-71
2023/01/28 09:59:34;;;;;;;18.77;10.68;;;;;;;-0.85;74.69;100074.09;7345298;19;20010;-72
2023/01/28 10:02:18;;;;;;;22.85;10.80;;;;;;;-0.79;74.77;100083.63;7344827;19;20401;-71
2023/01/28 10:04:51;;;;;;;22.95;11.13;;;;;;;-0.80;74.67;100076.66;7342896;19;20018;-73
2023/01/28 10:07:34;;;;;;;17.95;10.23;;;;;;;-0.81;74.77;100077.53;7344076;19;20018;-70
2023/01/28 10:10:26;;;;;;;19.60;10.23;;;;;;;-0.71;74.93;100073.84;7344351;19;20468;-72
2023/01/28 10:13:16;;;;;;;15.40;9.88;;;;;;;-0.70;74.56;100074.72;7346458;19;20014;-72
2023/01/28 10:16:05;;;;;;;16.08;8.63;;;;;;;-0.71;74.16;100071.25;7343826;19;20018;-71
2023/01/28 10:18:34;;;;;;;20.63;10.15;;;;;;;-0.73;74.15;100065.16;7342668;19;20019;-71
2023/01/28 10:21:46;;;;;;;17.15;8.60;;;;;;;-0.68;74.36;100067.72;7343691;19;20019;-71
2023/01/28 10:24:17;;;;;;;17.63;9.05;;;;;;;-0.71;74.36;100068.63;7348226;19;20345;-72
2023/01/28 10:26:43;;;;;;;19.95;10.63;;;;;;;-0.74;74.17;100064.28;7345641;19;20018;-72
2023/01/28 10:29:30;;;;;;;18.65;10.98;;;;;;;-0.69;74.09;100061.59;7345066;19;20039;-70
2023/01/28 10:32:04;;;;;;;23.80;10.77;;;;;;;-0.70;74.01;100052.03;7345165;19;20023;-73
2023/01/28 10:34:29;;;;;;;18.20;9.52;;;;;;;-0.67;74.09;100045.84;7344690;19;20018;-71
2023/01/28 10:36:56;;;;;;;22.27;10.93;;;;;;;-0.67;73.56;100054.56;7347471;19;20015;-72
2023/01/28 10:39:23;;;;;;;23.67;11.38;;;;;;;-0.65;73.91;100046.69;7343464;19;20022;-72
2023/01/28 10:41:48;;;;;;;19.40;11.48;;;;;;;-0.64;74.04;100044.03;7343874;19;20428;-72
2023/01/28 10:44:26;;;;;;;19.15;10.55;;;;;;;-0.55;73.93;100050.84;7342808;19;20402;-73
2023/01/28 10:46:52;;;;;;;18.63;10.27;;;;;;;-0.58;73.69;100046.53;7347385;19;20006;-73
2023/01/28 10:49:29;;;;;;;18.42;10.38;;;;;;;-0.58;73.58;100038.69;7346129;19;20018;-73
2023/01/28 10:51:54;;;;;;;20.30;10.93;;;;;;;-0.57;73.15;100040.41;7347746;19;20026;-73
2023/01/28 10:54:24;;;;;;;20.73;11.57;;;;;;;-0.55;73.59;100025.50;7345542;19;20018;-72
2023/01/28 10:56:53;;;;;;;18.70;10.10;;;;;;;-0.54;73.43;100026.38;7346380;19;20014;-72
2023/01/28 10:59:20;;;;;;;21.52;10.40;;;;;;;-0.57;73.38;100029.94;7345676;19;20022;-73
2023/01/28 11:01:55;;;;;;;16.27;9.77;;;;;;;-0.57;73.27;100027.31;7345331;19;20353;-73
2023/01/28 11:04:43;;;;;;;25.70;11.80;;;;;;;-0.51;73.51;100040.28;7345332;19;20022;-74
2023/01/28 11:07:20;;;;;;;18.17;10.32;;;;;;;-0.51;73.20;100021.09;7345107;19;20041;-74
2023/01/28 11:09:48;;;;;;;24.02;11.45;;;;;;;-0.55;72.85;100017.66;7345859;19;20022;-73
2023/01/28 11:12:27;;;;;;;20.52;11.57;;;;;;;-0.51;72.72;100031.56;7345080;19;20492;-72
2023/01/28 11:14:58;;;;;;;21.83;11.35;;;;;;;-0.51;72.96;100014.09;7346324;19;20043;-73
2023/01/28 11:17:25;;;;;;;24.85;11.93;;;;;;;-0.51;72.88;100014.09;7346746;19;20338;-73
2023/01/28 11:19:55;;;;;;;26.25;12.35;;;;;;;-0.48;72.99;100006.19;7347047;19;20018;-74
2023/01/28 11:22:23;;;;;;;22.80;12.32;;;;;;;-0.50;72.73;100010.59;7345983;19;20035;-75
2023/01/28 11:24:47;;;;;;;23.27;11.93;;;;;;;-0.52;72.75;100009.75;7346207;19;20011;-73
2023/01/28 11:27:17;;;;;;;21.40;12.43;;;;;;;-0.48;72.83;100014.03;7346467;19;20030;-71
2023/01/28 11:29:42;;;;;;;24.50;12.52;;;;;;;-0.46;72.91;100017.50;7344060;19;20010;-72
2023/01/28 11:32:17;;;;;;;24.98;12.73;;;;;;;-0.37;72.80;100017.28;7344243;19;20153;-72
2023/01/28 11:34:49;;;;;;;20.90;11.18;;;;;;;-0.34;73.03;100018.13;7343811;19;20473;-73
2023/01/28 11:37:15;;;;;;;21.83;12.00;;;;;;;-0.33;73.20;100002.34;7343342;19;20106;-72
2023/01/28 11:39:39;;;;;;;24.92;11.95;;;;;;;-0.34;73.17;100000.66;7342515;19;20006;-73
2023/01/28 11:42:18;;;;;;;25.73;12.48;;;;;;;-0.30;73.07;100004.91;7343015;19;20022;-73
2023/01/28 11:44:44;;;;;;;25.50;12.02;;;;;;;-0.32;73.32;100003.22;7343994;19;20026;-72
2023/01/28 11:47:33;;;;;;;30.63;14.02;;;;;;;-0.28;73.23;99999.66;7341843;19;20098;-73
2023/01/28 11:50:18;;;;;;;24.45;12.15;;;;;;;-0.31;73.27;99997.09;7344740;19;20022;-72
2023/01/28 11:52:56;;;;;;;25.27;12.77;;;;;;;-0.36;73.14;99991.97;7343194;19;20014;-73
2023/01/28 11:55:43;;;;;;;26.63;12.23;;;;;;;-0.28;73.42;99991.78;7343084;19;20094;-72
2023/01/28 11:58:39;;;;;;;20.90;12.70;;;;;;;-0.28;73.26;99989.16;7342900;19;20022;-72